Time;durP1;ratioP1;P1;durP2;ratioP2;P2;SDS_P1;SDS_P2;PMS_P1;PMS_P2;Temp;Humidity;BMP_temperature;BMP_pressure;BME280_temperature;BME280_humidity;BME280_pressure;Samples;Min_cycle;Max_cycle;Signal;HPM_P1;HPM_P2
2022/03/02 00:02:14;;;;;;;18.95;9.30;;;;;;;1.47;94.83;101925.13;5226150;28;20020;-76
2022/03/02 00:04:45;;;;;;;19.25;8.93;;;;;;;1.49;94.42;101923.47;5215920;28;20467;-77
2022/03/02 00:07:15;;;;;;;18.30;9.02;;;;;;;1.42;94.83;101921.56;5229695;28;20048;-77
2022/03/02 00:09:45;;;;;;;18.80;9.20;;;;;;;1.37;95.75;101912.88;5237440;28;20025;-76
2022/03/02 00:12:16;;;;;;;18.70;9.63;;;;;;;1.45;96.08;101928.50;5233349;28;20051;-76
2022/03/02 00:14:46;;;;;;;16.48;8.73;;;;;;;1.63;95.23;101922.06;5229265;28;20033;-76
2022/03/02 00:17:16;;;;;;;15.60;8.35;;;;;;;1.61;95.19;101909.97;5206444;28;20043;-77
2022/03/02 00:19:47;;;;;;;17.98;8.65;;;;;;;1.70;94.97;101913.63;5226546;28;20036;-77
2022/03/02 00:22:18;;;;;;;18.65;9.05;;;;;;;1.50;95.26;101924.31;5231449;28;20055;-77
2022/03/02 00:24:51;;;;;;;15.50;8.32;;;;;;;1.64;96.27;101921.22;5233638;28;20517;-76
2022/03/02 00:27:24;;;;;;;15.13;8.38;;;;;;;1.59;95.68;101915.09;5231943;28;20029;-76
2022/03/02 00:29:55;;;;;;;16.88;8.45;;;;;;;1.35;98.44;101923.97;5231039;28;20025;-76
2022/03/02 00:32:25;;;;;;;17.38;8.73;;;;;;;1.18;99.60;101921.00;5229358;28;20044;-77
2022/03/02 00:34:55;;;;;;;18.35;8.90;;;;;;;1.15;100.00;101920.94;5237075;28;20394;-77
2022/03/02 00:37:26;;;;;;;15.43;8.70;;;;;;;1.24;99.43;101921.16;5211526;28;20029;-77
2022/03/02 00:39:56;;;;;;;16.00;9.05;;;;;;;1.19;99.76;101927.91;5227865;28;20364;-76
2022/03/02 00:42:29;;;;;;;17.77;8.98;;;;;;;1.45;98.39;101929.38;5226379;28;20035;-77
2022/03/02 00:45:00;;;;;;;17.63;9.07;;;;;;;1.25;98.35;101928.03;5232673;28;20040;-77
2022/03/02 00:47:31;;;;;;;17.60;8.95;;;;;;;1.26;98.95;101921.19;5224465;28;20033;-77
2022/03/02 00:50:03;;;;;;;16.42;8.95;;;;;;;1.27;98.08;101917.78;5232299;28;20295;-77
2022/03/02 00:52:34;;;;;;;16.80;8.68;;;;;;;1.28;98.75;101910.09;5233163;28;20039;-76
2022/03/02 00:55:04;;;;;;;20.63;9.50;;;;;;;1.25;99.21;101904.88;5233032;28;20591;-77
2022/03/02 00:57:34;;;;;;;15.75;8.85;;;;;;;1.15;100.00;101914.91;5237324;28;20032;-77
2022/03/02 01:00:06;;;;;;;19.08;8.98;;;;;;;1.02;100.00;101903.47;5224466;28;20039;-77
2022/03/02 01:02:37;;;;;;;19.48;9.38;;;;;;;1.22;100.00;101907.38;5234847;28;20032;-77
2022/03/02 01:05:08;;;;;;;20.13;9.35;;;;;;;1.20;99.06;101906.47;5230744;28;20110;-77
2022/03/02 01:07:38;;;;;;;16.95;9.02;;;;;;;1.13;100.00;101904.59;5226185;28;20116;-77
2022/03/02 01:10:09;;;;;;;17.23;8.98;;;;;;;1.16;100.00;101903.78;5233542;28;20029;-77
2022/03/02 01:12:39;;;;;;;16.92;8.25;;;;;;;1.16;100.00;101902.09;5212777;28;20028;-78
2022/03/02 01:15:12;;;;;;;16.45;8.57;;;;;;;1.26;100.00;101898.03;5218989;28;20036;-77
2022/03/02 01:17:42;;;;;;;18.52;9.18;;;;;;;1.14;99.75;101896.03;5225720;28;20100;-77
2022/03/02 01:40:53;;;;;;;16.30;8.20;;;;;;;0.80;100.00;101887.47;5222123;28;20036;-77
2022/03/02 01:43:27;;;;;;;16.50;8.35;;;;;;;1.11;100.00;101883.09;5228624;28;20033;-77
2022/03/02 01:45:57;;;;;;;18.17;8.32;;;;;;;0.94;100.00;101873.25;5231993;28;20115;-77
2022/03/02 01:48:27;;;;;;;17.48;8.50;;;;;;;0.89;100.00;101875.69;5231353;28;20065;-77
2022/03/02 01:50:58;;;;;;;17.08;8.68;;;;;;;0.92;100.00;101868.03;5232053;28;20548;-77
2022/03/02 01:53:28;;;;;;;15.77;8.50;;;;;;;0.97;100.00;101869.03;5228053;28;20060;-78
2022/03/02 01:55:59;;;;;;;19.58;9.32;;;;;;;0.90;100.00;101863.72;5197477;28;20025;-77
2022/03/02 01:58:30;;;;;;;19.98;9.10;;;;;;;0.99;100.00;101859.66;5235550;28;20032;-78
2022/03/02 02:01:01;;;;;;;16.75;8.90;;;;;;;0.95;99.94;101850.13;5205760;28;20024;-77
2022/03/02 02:03:33;;;;;;;19.05;9.18;;;;;;;1.02;100.00;101857.16;5231107;28;20083;-78
2022/03/02 02:06:03;;;;;;;14.32;8.15;;;;;;;1.06;99.33;101847.78;5222733;28;20036;-78
2022/03/02 02:08:34;;;;;;;16.67;9.02;;;;;;;0.90;98.89;101861.13;5213157;28;20398;-77
2022/03/02 02:11:04;;;;;;;18.70;8.93;;;;;;;0.88;99.92;101855.94;5232973;28;20477;-76
2022/03/02 02:13:35;;;;;;;20.27;9.10;;;;;;;0.78;99.61;101855.69;5232517;28;20043;-77
2022/03/02 02:16:06;;;;;;;18.92;9.57;;;;;;;0.75;99.80;101850.47;5228632;28;20035;-76
2022/03/02 02:18:37;;;;;;;17.15;8.68;;;;;;;0.75;99.61;101845.34;5232045;28;20037;-75
2022/03/02 02:21:08;;;;;;;18.80;9.20;;;;;;;0.87;99.48;101838.78;5232776;28;20514;-77
2022/03/02 02:23:39;;;;;;;17.83;8.57;;;;;;;0.94;98.05;101838.09;5232368;28;20017;-77
2022/03/02 02:26:09;;;;;;;16.40;8.73;;;;;;;1.12;97.61;101830.78;5229356;28;20373;-77
2022/03/02 02:28:40;;;;;;;14.43;7.63;;;;;;;1.02;97.24;101838.25;5233374;28;20319;-76
2022/03/02 02:31:11;;;;;;;15.63;8.07;;;;;;;0.93;98.06;101833.75;5222044;28;20028;-76
2022/03/02 02:33:42;;;;;;;15.70;7.80;;;;;;;0.79;100.00;101832.59;5235875;28;20031;-75
2022/03/02 02:36:15;;;;;;;14.50;7.97;;;;;;;0.91;100.00;101840.56;5232362;28;20116;-76
2022/03/02 02:38:45;;;;;;;15.85;8.32;;;;;;;1.09;97.80;101822.97;5237922;28;20027;-77
2022/03/02 02:41:16;;;;;;;17.70;8.65;;;;;;;0.96;98.88;101820.09;5232412;28;20192;-77
2022/03/02 02:43:46;;;;;;;14.20;7.90;;;;;;;0.96;99.07;101814.94;5233658;28;20035;-77
2022/03/02 02:46:17;;;;;;;17.10;8.13;;;;;;;0.78;99.11;101814.53;5227258;28;20657;-77
2022/03/02 02:48:47;;;;;;;16.17;8.38;;;;;;;0.64;100.00;101806.50;5226412;28;20032;-77
2022/03/02 02:51:18;;;;;;;19.02;8.75;;;;;;;0.61;100.00;101814.16;5235030;28;20035;-76
2022/03/02 02:53:48;;;;;;;17.33;8.80;;;;;;;0.58;100.00;101823.47;5227120;28;20020;-77
2022/03/02 02:56:20;;;;;;;17.70;9.13;;;;;;;0.66;100.00;101814.25;5236490;28;20035;-76
2022/03/02 02:58:50;;;;;;;15.30;8.70;;;;;;;0.60;100.00;101816.66;5228961;28;20387;-76
2022/03/02 03:01:21;;;;;;;14.27;7.65;;;;;;;0.68;100.00;101813.44;5221301;28;20102;-77
2022/03/02 03:03:51;;;;;;;16.38;8.15;;;;;;;0.52;100.00;101811.34;5230284;28;20462;-77
2022/03/02 03:06:21;;;;;;;17.65;8.38;;;;;;;0.55;100.00;101805.41;5223475;28;20025;-77
2022/03/02 03:08:51;;;;;;;18.73;8.77;;;;;;;0.64;100.00;101797.91;5233266;28;20029;-78
2022/03/02 03:11:22;;;;;;;14.32;7.57;;;;;;;0.79;100.00;101798.25;5234890;28;20035;-77
2022/03/02 03:13:52;;;;;;;15.02;7.47;;;;;;;0.63;100.00;101802.19;5225321;28;20549;-77
2022/03/02 03:16:22;;;;;;;14.90;8.02;;;;;;;0.76;100.00;101796.47;5222585;28;20260;-77
2022/03/02 03:18:53;;;;;;;15.05;7.97;;;;;;;0.67;100.00;101804.00;5226557;28;20067;-77
2022/03/02 03:21:23;;;;;;;15.52;7.72;;;;;;;0.70;100.00;101811.78;5226282;28;20038;-76
2022/03/02 03:23:53;;;;;;;18.05;8.32;;;;;;;0.83;100.00;101806.09;5227188;28;20582;-77
2022/03/02 03:26:24;;;;;;;15.68;8.18;;;;;;;0.88;100.00;101796.78;5208467;28;20068;-77
2022/03/02 03:28:54;;;;;;;15.57;8.52;;;;;;;0.99;100.00;101784.13;5231815;28;20394;-77
2022/03/02 03:31:24;;;;;;;17.90;8.20;;;;;;;0.82;100.00;101796.63;5231185;28;20053;-76
2022/03/02 03:33:55;;;;;;;17.38;7.82;;;;;;;0.79;100.00;101790.53;5236293;28;20064;-76
2022/03/02 03:36:25;;;;;;;17.30;8.82;;;;;;;0.73;100.00;101786.13;5230819;28;20432;-77
2022/03/02 03:38:55;;;;;;;15.95;8.55;;;;;;;0.74;100.00;101782.72;5233988;28;20106;-77
2022/03/02 03:41:25;;;;;;;16.95;8.80;;;;;;;0.72;100.00;101783.53;5221693;28;20033;-77
2022/03/02 03:43:56;;;;;;;20.15;8.63;;;;;;;0.60;100.00;101778.09;5230441;28;20050;-76
2022/03/02 03:46:26;;;;;;;16.90;9.27;;;;;;;0.63;100.00;101779.03;5225032;28;20031;-77
2022/03/02 03:48:56;;;;;;;18.85;9.45;;;;;;;0.56;100.00;101782.28;5220613;28;20112;-77
2022/03/02 03:51:27;;;;;;;19.73;9.90;;;;;;;0.67;100.00;101775.69;5230085;22;20485;-77
2022/03/02 03:53:57;;;;;;;18.17;10.18;;;;;;;0.73;100.00;101780.97;5208361;28;20047;-76
2022/03/02 03:56:28;;;;;;;18.05;9.73;;;;;;;0.66;100.00;101789.41;5219284;28;20079;-74
2022/03/02 03:59:01;;;;;;;19.23;10.15;;;;;;;0.64;100.00;101778.22;5216114;28;20049;-77
2022/03/02 04:01:31;;;;;;;19.95;10.63;;;;;;;0.62;100.00;101787.59;5216973;28;20028;-77
2022/03/02 04:04:02;;;;;;;19.20;10.13;;;;;;;0.80;100.00;101775.16;5219691;28;20017;-75
2022/03/02 04:06:32;;;;;;;17.58;9.48;;;;;;;0.86;100.00;101777.00;5219849;28;20406;-76
2022/03/02 04:09:04;;;;;;;20.75;9.77;;;;;;;0.72;100.00;101784.38;5220449;28;20024;-76
2022/03/02 04:11:34;;;;;;;20.02;9.95;;;;;;;0.70;100.00;101775.78;5219593;28;20047;-77
2022/03/02 04:14:04;;;;;;;19.08;9.57;;;;;;;0.58;100.00;101770.34;5219280;28;20028;-76
2022/03/02 04:16:35;;;;;;;17.63;9.23;;;;;;;0.76;100.00;101769.91;5217166;28;20391;-76
2022/03/02 04:19:05;;;;;;;17.73;9.20;;;;;;;0.66;100.00;101775.66;5217536;28;20024;-77
2022/03/02 04:21:36;;;;;;;18.15;9.40;;;;;;;0.69;100.00;101768.03;5219123;28;20120;-77
2022/03/02 04:24:06;;;;;;;16.52;8.48;;;;;;;0.63;100.00;101761.03;5219086;28;20068;-77
2022/03/02 04:26:36;;;;;;;18.00;9.88;;;;;;;0.58;100.00;101761.75;5219169;28;20559;-74
2022/03/02 04:29:07;;;;;;;19.52;9.63;;;;;;;0.57;100.00;101772.88;5218594;28;20502;-74
2022/03/02 04:31:37;;;;;;;18.70;9.60;;;;;;;0.54;100.00;101765.97;5218388;28;20497;-75
2022/03/02 04:34:07;;;;;;;17.92;9.13;;;;;;;0.45;100.00;101768.34;5220341;28;20087;-75
2022/03/02 04:36:37;;;;;;;17.85;9.02;;;;;;;0.36;100.00;101769.81;5212126;28;20032;-76
2022/03/02 04:39:08;;;;;;;18.23;9.15;;;;;;;0.33;100.00;101762.00;5220483;28;20029;-77
2022/03/02 04:41:38;;;;;;;16.02;8.70;;;;;;;0.49;100.00;101756.38;5220094;28;20037;-77
2022/03/02 04:44:08;;;;;;;16.83;8.93;;;;;;;0.57;100.00;101753.16;5220309;28;20028;-77
2022/03/02 04:46:39;;;;;;;17.38;8.32;;;;;;;0.54;100.00;101754.81;5219951;28;20095;-77
2022/03/02 04:49:13;;;;;;;14.65;7.65;;;;;;;0.42;100.00;101757.94;5219489;28;20028;-77
2022/03/02 04:51:48;;;;;;;12.73;6.57;;;;;;;0.34;100.00;101754.34;5219716;28;20033;-76
2022/03/02 04:57:09;;;;;;;19.40;8.70;;;;;;;0.41;100.00;101742.50;5211072;28;20094;-77
2022/03/02 04:59:39;;;;;;;19.70;9.18;;;;;;;0.38;100.00;101739.88;5218020;28;20475;-77
2022/03/02 05:02:09;;;;;;;16.75;9.15;;;;;;;0.20;100.00;101745.41;5219373;28;20043;-77
2022/03/02 05:04:40;;;;;;;18.67;8.48;;;;;;;0.25;100.00;101748.09;5219893;28;20025;-77
2022/03/02 05:07:10;;;;;;;16.25;8.50;;;;;;;0.27;100.00;101747.31;5219814;28;20025;-75
2022/03/02 05:09:40;;;;;;;16.17;8.50;;;;;;;0.24;100.00;101742.06;5220658;28;20363;-75
2022/03/02 05:12:10;;;;;;;21.75;8.43;;;;;;;0.18;100.00;101741.09;5222995;28;20029;-76
2022/03/02 05:14:41;;;;;;;16.40;8.07;;;;;;;0.10;100.00;101738.31;5223782;28;20108;-77
2022/03/02 05:17:11;;;;;;;17.90;9.13;;;;;;;0.15;100.00;101741.00;5222922;28;20075;-76
2022/03/02 05:19:41;;;;;;;15.35;8.23;;;;;;;0.23;100.00;101744.63;5223661;28;20024;-77
2022/03/02 05:22:12;;;;;;;15.20;7.82;;;;;;;0.23;100.00;101754.91;5222685;28;20453;-76
2022/03/02 05:24:42;;;;;;;17.00;8.90;;;;;;;0.17;100.00;101753.06;5223829;28;20029;-77
2022/03/02 05:27:13;;;;;;;15.75;8.27;;;;;;;0.20;100.00;101747.97;5222902;28;20025;-77
2022/03/02 05:29:43;;;;;;;15.35;8.30;;;;;;;0.37;100.00;101743.28;5221281;28;20033;-76
2022/03/02 05:32:13;;;;;;;16.73;7.70;;;;;;;0.41;100.00;101739.94;5222217;28;20234;-75
2022/03/02 05:34:44;;;;;;;16.65;8.20;;;;;;;0.35;100.00;101745.78;5222633;28;20570;-77
2022/03/02 05:37:14;;;;;;;16.08;8.20;;;;;;;0.40;100.00;101748.47;5223062;28;20056;-77
2022/03/02 05:39:44;;;;;;;17.60;7.93;;;;;;;0.33;100.00;101749.16;5223325;28;20036;-76
2022/03/02 05:42:14;;;;;;;14.35;7.97;;;;;;;0.38;100.00;101758.72;5220569;28;20028;-76
2022/03/02 05:44:46;;;;;;;17.35;8.60;;;;;;;0.49;100.00;101759.84;5223267;28;20025;-77
2022/03/02 05:47:17;;;;;;;15.15;8.27;;;;;;;0.40;100.00;101757.03;5216979;28;20059;-76
2022/03/02 05:49:47;;;;;;;16.98;8.27;;;;;;;0.31;100.00;101754.28;5222698;28;20064;-74
2022/03/02 05:52:18;;;;;;;17.63;8.50;;;;;;;0.22;100.00;101756.59;5216906;28;20036;-77
2022/03/02 05:54:48;;;;;;;15.60;8.15;;;;;;;0.29;100.00;101758.50;5222655;28;20116;-76
2022/03/02 05:57:19;;;;;;;18.88;8.93;;;;;;;0.28;100.00;101759.34;5222389;28;20140;-77
2022/03/02 05:59:49;;;;;;;14.32;8.02;;;;;;;0.19;100.00;101753.09;5220660;28;20036;-75
2022/03/02 06:02:19;;;;;;;15.48;8.00;;;;;;;0.10;100.00;101748.59;5222538;28;20029;-77
2022/03/02 06:04:50;;;;;;;15.48;8.35;;;;;;;0.09;100.00;101749.44;5223106;28;20025;-76
2022/03/02 06:07:20;;;;;;;16.25;8.52;;;;;;;0.27;100.00;101752.47;5222553;28;20112;-74
2022/03/02 06:09:50;;;;;;;17.92;9.05;;;;;;;0.22;100.00;101761.75;5220927;28;20083;-76
2022/03/02 06:12:21;;;;;;;14.95;8.18;;;;;;;0.17;100.00;101760.75;5211576;28;20036;-76
2022/03/02 06:14:51;;;;;;;18.00;8.75;;;;;;;0.03;100.00;101767.25;5218771;28;20028;-74
2022/03/02 06:17:22;;;;;;;18.00;9.27;;;;;;;0.22;100.00;101758.31;5213906;28;20040;-77
2022/03/02 06:19:52;;;;;;;18.27;9.65;;;;;;;-0.03;100.00;101761.97;5212229;28;20032;-75
2022/03/02 06:22:25;;;;;;;17.60;9.43;;;;;;;0.05;100.00;101754.47;5220582;28;20596;-76
2022/03/02 06:24:57;;;;;;;20.10;10.07;;;;;;;0.11;100.00;101758.06;5222393;28;20025;-77
2022/03/02 06:27:27;;;;;;;18.05;9.43;;;;;;;0.12;100.00;101759.78;5222402;28;20029;-77
2022/03/02 06:29:57;;;;;;;19.90;9.52;;;;;;;0.32;100.00;101753.44;5212694;28;20088;-78
2022/03/02 06:32:28;;;;;;;17.65;9.63;;;;;;;0.37;100.00;101758.69;5231854;28;20043;-77
2022/03/02 06:34:59;;;;;;;19.48;9.57;;;;;;;0.30;100.00;101762.81;5230990;28;20108;-78
2022/03/02 06:37:33;;;;;;;16.90;9.10;;;;;;;0.38;100.00;101766.44;5229630;28;20041;-77
2022/03/02 06:40:07;;;;;;;16.80;9.43;;;;;;;0.38;100.00;101758.72;5229392;28;20051;-77
2022/03/02 06:43:05;;;;;;;18.05;8.90;;;;;;;0.34;100.00;101767.19;5202010;28;20035;-78
2022/03/02 06:45:54;;;;;;;17.35;8.80;;;;;;;0.26;100.00;101761.00;5217663;28;20152;-78
2022/03/02 06:48:41;;;;;;;18.13;9.13;;;;;;;0.16;100.00;101758.16;5225632;28;20037;-78
2022/03/02 06:51:14;;;;;;;19.55;9.55;;;;;;;0.10;100.00;101763.16;5196868;28;20052;-78
2022/03/02 06:53:45;;;;;;;24.08;10.30;;;;;;;0.09;100.00;101771.69;5205385;28;20041;-78
2022/03/02 06:56:18;;;;;;;21.55;10.63;;;;;;;0.32;100.00;101758.56;5210042;28;20122;-78
2022/03/02 06:58:53;;;;;;;22.30;11.30;;;;;;;0.46;100.00;101764.94;5225706;28;20063;-78
2022/03/02 07:01:29;;;;;;;20.83;10.65;;;;;;;0.55;100.00;101761.69;5228162;28;20029;-78
2022/03/02 07:04:01;;;;;;;21.60;10.77;;;;;;;0.55;100.00;101759.97;5227186;28;20033;-77
2022/03/02 07:06:31;;;;;;;19.52;10.63;;;;;;;0.39;100.00;101768.16;5208640;28;20045;-78
2022/03/02 07:09:02;;;;;;;20.30;10.38;;;;;;;0.56;100.00;101764.28;5229703;28;20107;-78
2022/03/02 07:11:33;;;;;;;20.25;10.52;;;;;;;0.67;100.00;101762.84;5213771;28;20082;-78
2022/03/02 07:14:07;;;;;;;19.58;10.05;;;;;;;0.74;100.00;101769.84;5212233;28;20461;-78
2022/03/02 07:16:37;;;;;;;19.00;10.45;;;;;;;0.83;100.00;101776.91;5230881;28;20037;-77
2022/03/02 07:19:07;;;;;;;18.02;9.50;;;;;;;0.65;100.00;101774.81;5212005;28;20013;-78
2022/03/02 07:21:40;;;;;;;20.55;10.60;;;;;;;0.67;100.00;101780.84;5229869;28;20075;-77
2022/03/02 07:24:19;;;;;;;21.80;10.95;;;;;;;0.92;100.00;101777.97;5231738;28;20033;-78
2022/03/02 07:26:52;;;;;;;20.80;10.27;;;;;;;1.03;100.00;101779.09;5228608;28;20039;-78
2022/03/02 07:29:26;;;;;;;19.85;9.90;;;;;;;1.10;100.00;101773.25;5217264;28;20044;-78
2022/03/02 07:31:57;;;;;;;20.15;10.07;;;;;;;0.95;100.00;101772.03;5221734;28;20298;-78
2022/03/02 07:34:30;;;;;;;19.80;10.00;;;;;;;1.19;100.00;101772.56;5227193;28;20068;-78
2022/03/02 07:37:01;;;;;;;20.50;10.52;;;;;;;1.28;100.00;101765.94;5228264;28;20096;-78
2022/03/02 07:39:31;;;;;;;19.58;10.48;;;;;;;1.44;100.00;101757.66;5220507;28;20056;-78
2022/03/02 07:42:03;;;;;;;18.08;10.32;;;;;;;1.71;99.44;101755.63;5203769;28;20032;-77
2022/03/02 07:44:33;;;;;;;18.70;9.60;;;;;;;1.93;97.00;101755.16;5228970;28;20252;-78
2022/03/02 07:47:03;;;;;;;19.08;9.95;;;;;;;1.89;96.26;101751.69;5217026;28;20050;-77
2022/03/02 07:49:35;;;;;;;19.10;10.13;;;;;;;1.86;97.04;101761.06;5222283;28;20020;-78
2022/03/02 07:52:06;;;;;;;19.73;9.90;;;;;;;1.88;97.98;101749.06;5216401;28;20028;-78
2022/03/02 07:54:38;;;;;;;17.15;9.57;;;;;;;1.73;96.21;101758.25;5198445;28;20029;-78
2022/03/02 07:57:14;;;;;;;19.75;9.40;;;;;;;2.26;93.08;101751.47;5221743;28;20025;-78
2022/03/02 07:59:45;;;;;;;20.00;10.32;;;;;;;2.40;92.71;101744.81;5227791;28;20036;-78
2022/03/02 08:02:19;;;;;;;21.17;10.65;;;;;;;2.62;91.03;101743.41;5216219;28;20021;-78
2022/03/02 08:04:52;;;;;;;18.75;10.15;;;;;;;2.50;91.21;101753.59;5218924;28;20033;-77
2022/03/02 08:07:23;;;;;;;17.73;9.68;;;;;;;2.43;91.78;101751.72;5216256;28;20033;-78
2022/03/02 08:09:53;;;;;;;18.75;9.82;;;;;;;2.44;90.54;101750.88;5218700;28;20063;-78
2022/03/02 08:12:24;;;;;;;17.70;9.82;;;;;;;2.67;91.27;101750.38;5195983;28;20332;-78
2022/03/02 08:14:54;;;;;;;17.95;10.43;;;;;;;2.68;90.48;101749.53;5226805;28;20059;-78
2022/03/02 08:17:25;;;;;;;18.55;10.02;;;;;;;2.46;92.98;101751.78;5225890;28;20083;-77
2022/03/02 08:19:55;;;;;;;17.08;9.35;;;;;;;2.77;92.82;101747.13;5226027;28;20540;-78
2022/03/02 08:22:28;;;;;;;18.15;10.20;;;;;;;2.49;93.35;101750.13;5208339;28;20035;-77
2022/03/02 08:25:07;;;;;;;19.55;11.02;;;;;;;2.33;92.39;101740.41;5208279;28;20024;-77
2022/03/02 08:27:39;;;;;;;18.70;9.70;;;;;;;2.93;89.51;101741.31;5211794;28;20084;-78
2022/03/02 08:30:12;;;;;;;19.10;10.23;;;;;;;2.83;86.80;101738.59;5225404;28;20047;-78
2022/03/02 08:32:45;;;;;;;18.90;10.27;;;;;;;2.56;89.85;101744.22;5207240;28;20093;-78
2022/03/02 08:35:16;;;;;;;18.75;10.32;;;;;;;2.82;89.60;101739.44;5225061;28;20153;-78
2022/03/02 08:37:46;;;;;;;18.48;9.60;;;;;;;3.07;88.90;101728.59;5225251;28;20017;-78
2022/03/02 08:40:17;;;;;;;18.25;10.25;;;;;;;3.76;88.94;101731.13;5225407;28;20055;-78
2022/03/02 08:42:49;;;;;;;17.73;9.80;;;;;;;3.41;89.17;101725.56;5218246;28;20060;-78
2022/03/02 08:45:20;;;;;;;19.55;10.63;;;;;;;4.12;87.20;101720.28;5198232;28;20120;-78
2022/03/02 08:47:50;;;;;;;17.48;9.43;;;;;;;5.43;80.96;101717.63;5222390;28;20100;-78
2022/03/02 08:50:22;;;;;;;16.13;9.65;;;;;;;5.04;79.29;101725.25;5217694;28;20033;-78
2022/03/02 08:52:54;;;;;;;20.00;9.85;;;;;;;5.52;77.08;101715.06;5227541;28;20029;-78
2022/03/02 08:55:30;;;;;;;15.65;9.40;;;;;;;4.79;81.74;101727.69;5209808;28;20300;-78
2022/03/02 08:58:00;;;;;;;;;;;;;;;4.78;82.22;101726.81;5226203;28;20024;-78
2022/03/02 09:00:32;;;;;;;15.90;8.90;;;;;;;5.05;80.18;101721.81;5209667;28;19913;-78
2022/03/02 09:03:03;;;;;;;16.08;9.50;;;;;;;4.07;83.52;101729.69;5209276;28;20315;-78
2022/03/02 09:05:34;;;;;;;19.85;9.88;;;;;;;3.99;84.57;101724.47;5227865;28;20025;-78
2022/03/02 09:08:04;;;;;;;17.83;9.85;;;;;;;4.29;84.54;101729.91;5227130;28;20387;-76
2022/03/02 09:10:37;;;;;;;18.20;10.15;;;;;;;4.47;82.98;101719.69;5209754;28;20044;-78
2022/03/02 09:13:10;;;;;;;17.95;9.43;;;;;;;4.67;83.48;101712.94;5219341;28;20024;-77
2022/03/02 09:15:40;;;;;;;16.83;9.07;;;;;;;4.34;84.78;101717.00;5227711;28;20036;-77
2022/03/02 09:18:11;;;;;;;21.33;9.20;;;;;;;4.46;84.67;101706.75;5226728;28;20025;-77
2022/03/02 09:20:42;;;;;;;20.40;9.93;;;;;;;4.22;85.17;101706.56;5226969;28;20045;-77
2022/03/02 09:23:12;;;;;;;20.08;9.43;;;;;;;4.10;84.82;101712.50;5226025;28;20025;-78
2022/03/02 09:25:45;;;;;;;18.52;9.38;;;;;;;4.34;85.42;101712.72;5226694;28;20486;-77
2022/03/02 09:28:16;;;;;;;19.52;9.57;;;;;;;4.68;83.70;101716.41;5204873;28;20108;-77
2022/03/02 09:30:48;;;;;;;17.50;9.32;;;;;;;4.26;83.79;101714.38;5227866;28;20590;-77
2022/03/02 09:33:23;;;;;;;15.85;9.05;;;;;;;4.23;84.74;101714.34;5226842;28;20055;-76
2022/03/02 09:35:55;;;;;;;13.60;6.97;;;;;;;4.25;85.01;101725.56;5223633;28;20036;-77
2022/03/02 09:38:26;;;;;;;19.80;9.77;;;;;;;4.60;82.49;101718.09;5211255;28;20072;-75
2022/03/02 09:41:00;;;;;;;16.83;9.02;;;;;;;4.52;84.12;101725.78;5219677;28;20037;-77
2022/03/02 09:43:32;;;;;;;20.00;9.80;;;;;;;4.84;82.07;101710.44;5214406;28;20028;-77
2022/03/02 09:46:06;;;;;;;18.73;9.70;;;;;;;4.87;83.12;101705.28;5219921;28;20413;-76
2022/03/02 09:49:10;;;;;;;15.82;8.73;;;;;;;5.11;81.31;101713.19;5223103;28;20039;-76
2022/03/02 09:51:42;;;;;;;18.75;9.93;;;;;;;4.63;82.41;101716.34;5236806;23;20140;-79
2022/03/02 09:54:15;;;;;;;15.95;9.25;;;;;;;4.58;81.17;101709.41;5212755;28;20116;-79
2022/03/02 09:56:49;;;;;;;16.23;9.07;;;;;;;4.96;80.47;101711.38;5196640;28;20025;-80
2022/03/02 09:59:24;;;;;;;18.77;9.55;;;;;;;5.62;78.00;101696.09;5225324;28;20017;-79
2022/03/02 10:01:56;;;;;;;19.00;9.23;;;;;;;5.37;79.65;101696.00;5222557;28;20074;-79
2022/03/02 10:04:29;;;;;;;19.67;8.95;;;;;;;5.63;78.32;101701.28;5223725;28;20032;-79
2022/03/02 10:09:52;;;;;;;16.38;9.15;;;;;;;5.28;76.15;101701.16;5218582;28;20036;-79
2022/03/02 10:12:22;;;;;;;17.40;9.55;;;;;;;5.48;77.00;101695.19;5223569;28;20025;-79
2022/03/02 10:14:55;;;;;;;17.42;8.77;;;;;;;5.90;76.06;101692.72;5224069;28;20615;-80
2022/03/02 10:17:35;;;;;;;19.58;9.55;;;;;;;5.98;75.74;101686.69;5223367;28;20036;-80
2022/03/02 10:20:13;;;;;;;21.73;9.38;;;;;;;5.13;77.46;101694.19;5224586;28;20234;-80
2022/03/02 10:22:47;;;;;;;14.80;9.27;;;;;;;5.41;77.67;101699.47;5217758;28;20620;-80
2022/03/02 10:25:18;;;;;;;16.88;9.10;;;;;;;5.34;77.97;101694.25;5221295;28;20040;-80
2022/03/02 10:28:02;;;;;;;17.88;9.55;;;;;;;5.80;76.63;101689.25;5224103;28;20040;-79
2022/03/02 10:30:38;;;;;;;16.75;8.95;;;;;;;6.21;75.82;101681.47;5225721;28;20386;-79
2022/03/02 10:33:24;;;;;;;19.55;10.02;;;;;;;6.00;75.30;101674.56;5208325;28;20474;-80
2022/03/02 10:36:08;;;;;;;16.98;9.20;;;;;;;6.22;73.39;101668.50;5224519;28;20034;-79
2022/03/02 10:38:38;;;;;;;17.95;9.48;;;;;;;6.23;70.67;101672.81;5216430;28;20036;-79
2022/03/02 10:41:11;;;;;;;19.50;9.05;;;;;;;6.48;68.99;101678.84;5223727;28;20020;-80
2022/03/02 10:44:10;;;;;;;19.75;9.73;;;;;;;5.74;67.71;101680.56;5223341;28;20029;-80
2022/03/02 10:46:46;;;;;;;16.80;9.27;;;;;;;6.22;66.54;101680.63;5194427;28;20044;-80
2022/03/02 10:49:26;;;;;;;19.92;8.93;;;;;;;5.93;68.47;101683.19;5218572;28;20035;-80
2022/03/02 10:52:00;;;;;;;17.23;9.32;;;;;;;5.97;67.98;101690.13;5223132;28;20051;-80
2022/03/02 10:54:34;;;;;;;18.33;9.38;;;;;;;5.83;67.91;101702.22;5223509;28;20678;-79
2022/03/02 10:57:15;;;;;;;20.10;10.52;;;;;;;5.75;71.05;101692.66;5223520;28;20032;-79
2022/03/02 10:59:45;;;;;;;17.92;9.10;;;;;;;5.64;72.26;101691.75;5217646;28;20016;-79
2022/03/02 11:02:20;;;;;;;17.92;10.20;;;;;;;5.61;73.17;101684.00;5222900;28;20032;-79
2022/03/02 11:04:54;;;;;;;19.50;9.65;;;;;;;5.47;72.84;101689.16;5222976;28;20036;-79
2022/03/02 11:07:28;;;;;;;17.92;9.43;;;;;;;6.07;72.18;101691.84;5222533;28;20043;-79
2022/03/02 11:10:01;;;;;;;18.13;9.07;;;;;;;6.26;71.68;101678.00;5223587;28;20017;-79
2022/03/02 11:12:32;;;;;;;19.85;9.05;;;;;;;6.31;70.63;101678.00;5221332;28;20028;-79
2022/03/02 11:15:05;;;;;;;18.08;8.57;;;;;;;5.85;70.08;101684.03;5221600;28;20029;-79
2022/03/02 11:17:39;;;;;;;18.23;9.75;;;;;;;6.07;69.01;101667.66;5221989;28;20497;-79
2022/03/02 11:20:10;;;;;;;15.38;8.52;;;;;;;6.29;69.12;101664.16;5214471;28;20687;-79
2022/03/02 11:22:55;;;;;;;17.50;8.82;;;;;;;6.45;67.15;101663.28;5221182;28;20021;-79
2022/03/02 11:25:48;;;;;;;16.27;8.55;;;;;;;6.20;65.49;101658.97;5221166;28;20029;-79
2022/03/02 11:28:37;;;;;;;19.92;9.05;;;;;;;6.36;67.66;101658.09;5216908;28;20489;-79
2022/03/02 11:31:08;;;;;;;18.92;8.25;;;;;;;6.26;67.67;101664.19;5213996;28;20398;-79
2022/03/02 11:33:38;;;;;;;13.65;7.93;;;;;;;6.26;66.01;101662.44;5221541;28;20028;-79
2022/03/02 11:36:17;;;;;;;14.77;7.95;;;;;;;6.47;66.62;101656.34;5221580;28;20025;-79
2022/03/02 11:38:52;;;;;;;14.00;7.85;;;;;;;6.51;66.66;101652.88;5221561;28;20402;-79
2022/03/02 11:41:44;;;;;;;13.65;6.55;;;;;;;6.45;60.77;101642.53;5220712;28;20086;-79
2022/03/02 11:44:34;;;;;;;12.35;6.72;;;;;;;6.31;58.65;101644.25;5215756;28;20029;-79
2022/03/02 11:47:08;;;;;;;13.85;6.80;;;;;;;6.43;57.35;101631.28;5221731;28;20108;-79
2022/03/02 11:49:46;;;;;;;13.13;6.65;;;;;;;6.45;58.28;101638.16;5214675;28;20494;-80
2022/03/02 11:52:21;;;;;;;12.48;6.57;;;;;;;6.66;59.38;101638.16;5221519;28;20047;-79
2022/03/02 11:54:53;;;;;;;13.82;6.57;;;;;;;6.95;59.86;101631.09;5222948;28;20025;-80
2022/03/02 11:57:26;;;;;;;13.73;7.30;;;;;;;6.92;57.71;101636.31;5222843;28;20579;-79
2022/03/02 12:00:24;;;;;;;13.23;6.90;;;;;;;6.84;57.03;101635.50;5222416;28;20032;-79
2022/03/02 12:03:02;;;;;;;11.20;6.70;;;;;;;6.76;57.52;101631.19;5213145;28;20033;-79
2022/03/02 12:05:33;;;;;;;11.90;6.60;;;;;;;6.92;57.41;101625.06;5209754;28;20075;-79
2022/03/02 12:08:10;;;;;;;14.85;7.35;;;;;;;6.82;57.64;101615.56;5216114;28;20053;-79
2022/03/02 12:10:56;;;;;;;13.55;6.80;;;;;;;6.70;57.32;101610.41;5211266;28;20231;-79